sensor_id;sensor_type;location;lat;lon;timestamp;P1;durP1;ratioP1;P2;durP2;ratioP2
36797;SDS011;22748;8.426;99.512;2023-05-07T00:01:33;11.98;;;10.75;;
36797;SDS011;22748;8.426;99.512;2023-05-07T00:04:04;13.23;;;11.65;;
36797;SDS011;22748;8.426;99.512;2023-05-07T00:06:48;12.57;;;10.27;;
36797;SDS011;22748;8.426;99.512;2023-05-07T00:09:31;15.98;;;9.35;;
36797;SDS011;22748;8.426;99.512;2023-05-07T00:12:09;15.35;;;9.73;;
36797;SDS011;22748;8.426;99.512;2023-05-07T00:14:39;13.55;;;9.30;;
36797;SDS011;22748;8.426;99.512;2023-05-07T00:17:09;16.00;;;11.13;;
36797;SDS011;22748;8.426;99.512;2023-05-07T00:19:39;20.88;;;8.68;;
36797;SDS011;22748;8.426;99.512;2023-05-07T00:22:13;11.57;;;8.85;;
36797;SDS011;22748;8.426;99.512;2023-05-07T00:24:44;14.52;;;9.60;;
36797;SDS011;22748;8.426;99.512;2023-05-07T00:27:17;20.70;;;12.50;;
36797;SDS011;22748;8.426;99.512;2023-05-07T00:29:47;14.15;;;7.97;;
36797;SDS011;22748;8.426;99.512;2023-05-07T00:32:20;14.88;;;7.53;;
36797;SDS011;22748;8.426;99.512;2023-05-07T00:34:51;16.40;;;8.43;;
36797;SDS011;22748;8.426;99.512;2023-05-07T00:37:21;14.07;;;8.18;;
36797;SDS011;22748;8.426;99.512;2023-05-07T00:39:53;40.67;;;35.53;;
36797;SDS011;22748;8.426;99.512;2023-05-07T00:42:26;39.90;;;24.75;;
36797;SDS011;22748;8.426;99.512;2023-05-07T00:44:57;15.02;;;9.18;;
36797;SDS011;22748;8.426;99.512;2023-05-07T00:47:28;10.20;;;8.23;;
36797;SDS011;22748;8.426;99.512;2023-05-07T00:52:28;25.92;;;9.50;;
36797;SDS011;22748;8.426;99.512;2023-05-07T00:55:00;17.02;;;8.25;;
36797;SDS011;22748;8.426;99.512;2023-05-07T00:57:37;12.60;;;8.07;;
36797;SDS011;22748;8.426;99.512;2023-05-07T01:00:10;15.43;;;8.40;;
36797;SDS011;22748;8.426;99.512;2023-05-07T01:02:41;8.73;;;7.88;;
36797;SDS011;22748;8.426;99.512;2023-05-07T01:05:12;10.60;;;8.50;;
36797;SDS011;22748;8.426;99.512;2023-05-07T01:07:46;9.45;;;8.55;;
36797;SDS011;22748;8.426;99.512;2023-05-07T01:10:19;12.20;;;9.45;;
36797;SDS011;22748;8.426;99.512;2023-05-07T01:13:05;10.80;;;9.20;;
36797;SDS011;22748;8.426;99.512;2023-05-07T01:15:38;12.23;;;9.52;;
36797;SDS011;22748;8.426;99.512;2023-05-07T01:18:10;11.07;;;9.73;;
36797;SDS011;22748;8.426;99.512;2023-05-07T01:20:42;12.30;;;9.80;;
36797;SDS011;22748;8.426;99.512;2023-05-07T01:25:51;11.48;;;9.10;;
36797;SDS011;22748;8.426;99.512;2023-05-07T01:28:23;11.45;;;9.52;;
36797;SDS011;22748;8.426;99.512;2023-05-07T01:30:58;10.40;;;9.32;;
36797;SDS011;22748;8.426;99.512;2023-05-07T01:33:33;11.27;;;9.57;;
36797;SDS011;22748;8.426;99.512;2023-05-07T01:36:06;11.32;;;9.43;;
36797;SDS011;22748;8.426;99.512;2023-05-07T01:38:42;11.75;;;9.82;;
36797;SDS011;22748;8.426;99.512;2023-05-07T01:41:14;10.55;;;9.43;;
36797;SDS011;22748;8.426;99.512;2023-05-07T01:43:44;10.52;;;9.50;;
36797;SDS011;22748;8.426;99.512;2023-05-07T01:46:16;9.93;;;8.77;;
36797;SDS011;22748;8.426;99.512;2023-05-07T01:48:48;10.93;;;9.10;;
36797;SDS011;22748;8.426;99.512;2023-05-07T01:53:57;12.70;;;9.15;;
36797;SDS011;22748;8.426;99.512;2023-05-07T01:56:28;13.32;;;9.65;;
36797;SDS011;22748;8.426;99.512;2023-05-07T01:58:58;13.50;;;9.57;;
36797;SDS011;22748;8.426;99.512;2023-05-07T02:01:30;13.75;;;9.93;;
36797;SDS011;22748;8.426;99.512;2023-05-07T02:04:00;11.82;;;9.00;;
36797;SDS011;22748;8.426;99.512;2023-05-07T02:06:43;11.20;;;10.07;;
36797;SDS011;22748;8.426;99.512;2023-05-07T02:09:15;11.77;;;10.50;;
36797;SDS011;22748;8.426;99.512;2023-05-07T02:11:48;17.95;;;11.55;;
36797;SDS011;22748;8.426;99.512;2023-05-07T02:14:19;13.52;;;9.70;;
36797;SDS011;22748;8.426;99.512;2023-05-07T02:16:55;10.63;;;8.95;;
36797;SDS011;22748;8.426;99.512;2023-05-07T02:19:26;14.38;;;9.60;;
36797;SDS011;22748;8.426;99.512;2023-05-07T02:21:57;17.63;;;12.70;;
36797;SDS011;22748;8.426;99.512;2023-05-07T02:24:30;12.60;;;10.95;;
36797;SDS011;22748;8.426;99.512;2023-05-07T02:27:02;10.68;;;9.65;;
36797;SDS011;22748;8.426;99.512;2023-05-07T02:29:33;14.68;;;9.85;;
36797;SDS011;22748;8.426;99.512;2023-05-07T02:32:05;11.40;;;9.13;;
36797;SDS011;22748;8.426;99.512;2023-05-07T02:34:36;11.73;;;8.52;;
36797;SDS011;22748;8.426;99.512;2023-05-07T02:37:13;14.20;;;11.40;;
36797;SDS011;22748;8.426;99.512;2023-05-07T02:39:45;8.05;;;7.25;;
36797;SDS011;22748;8.426;99.512;2023-05-07T02:42:24;9.48;;;7.25;;
36797;SDS011;22748;8.426;99.512;2023-05-07T02:44:54;7.68;;;6.80;;
36797;SDS011;22748;8.426;99.512;2023-05-07T02:47:25;7.78;;;7.05;;
36797;SDS011;22748;8.426;99.512;2023-05-07T02:49:56;11.75;;;7.63;;
36797;SDS011;22748;8.426;99.512;2023-05-07T02:52:30;9.43;;;7.88;;
36797;SDS011;22748;8.426;99.512;2023-05-07T02:55:03;13.10;;;7.85;;
36797;SDS011;22748;8.426;99.512;2023-05-07T02:57:35;9.00;;;6.90;;
36797;SDS011;22748;8.426;99.512;2023-05-07T03:00:22;8.80;;;7.25;;
36797;SDS011;22748;8.426;99.512;2023-05-07T03:02:53;9.23;;;6.57;;
36797;SDS011;22748;8.426;99.512;2023-05-07T03:05:23;8.77;;;6.20;;
36797;SDS011;22748;8.426;99.512;2023-05-07T03:07:54;11.63;;;7.43;;
36797;SDS011;22748;8.426;99.512;2023-05-07T03:10:28;7.85;;;6.15;;
36797;SDS011;22748;8.426;99.512;2023-05-07T03:13:15;7.45;;;5.60;;
36797;SDS011;22748;8.426;99.512;2023-05-07T03:15:49;8.50;;;7.38;;
36797;SDS011;22748;8.426;99.512;2023-05-07T03:18:21;11.95;;;6.25;;
36797;SDS011;22748;8.426;99.512;2023-05-07T03:20:51;8.80;;;7.75;;
36797;SDS011;22748;8.426;99.512;2023-05-07T03:23:22;10.10;;;6.50;;
36797;SDS011;22748;8.426;99.512;2023-05-07T03:25:55;14.15;;;6.53;;
36797;SDS011;22748;8.426;99.512;2023-05-07T03:28:31;6.65;;;5.82;;
36797;SDS011;22748;8.426;99.512;2023-05-07T03:31:04;9.25;;;5.40;;
36797;SDS011;22748;8.426;99.512;2023-05-07T03:33:35;8.40;;;6.45;;
36797;SDS011;22748;8.426;99.512;2023-05-07T03:36:08;9.15;;;7.55;;
36797;SDS011;22748;8.426;99.512;2023-05-07T03:41:11;6.28;;;5.63;;
36797;SDS011;22748;8.426;99.512;2023-05-07T03:43:42;7.55;;;6.72;;
36797;SDS011;22748;8.426;99.512;2023-05-07T03:46:20;8.45;;;6.63;;
36797;SDS011;22748;8.426;99.512;2023-05-07T03:48:53;6.57;;;5.97;;
36797;SDS011;22748;8.426;99.512;2023-05-07T03:51:24;7.85;;;5.75;;
36797;SDS011;22748;8.426;99.512;2023-05-07T03:53:55;5.95;;;5.35;;
36797;SDS011;22748;8.426;99.512;2023-05-07T03:56:31;7.30;;;6.50;;
36797;SDS011;22748;8.426;99.512;2023-05-07T03:59:01;8.68;;;6.15;;
36797;SDS011;22748;8.426;99.512;2023-05-07T04:01:33;8.57;;;6.32;;
36797;SDS011;22748;8.426;99.512;2023-05-07T04:04:04;10.13;;;5.72;;
36797;SDS011;22748;8.426;99.512;2023-05-07T04:09:20;8.55;;;6.35;;
36797;SDS011;22748;8.426;99.512;2023-05-07T04:11:53;7.60;;;5.93;;
36797;SDS011;22748;8.426;99.512;2023-05-07T04:14:34;7.97;;;6.20;;
36797;SDS011;22748;8.426;99.512;2023-05-07T04:17:05;7.43;;;6.25;;
36797;SDS011;22748;8.426;99.512;2023-05-07T04:19:36;6.82;;;5.97;;
36797;SDS011;22748;8.426;99.512;2023-05-07T04:22:11;8.43;;;6.35;;
36797;SDS011;22748;8.426;99.512;2023-05-07T04:24:42;6.60;;;5.63;;
36797;SDS011;22748;8.426;99.512;2023-05-07T04:27:14;12.25;;;6.00;;
36797;SDS011;22748;8.426;99.512;2023-05-07T04:29:45;8.00;;;6.18;;
36797;SDS011;22748;8.426;99.512;2023-05-07T04:32:21;9.65;;;5.93;;
36797;SDS011;22748;8.426;99.512;2023-05-07T04:34:53;8.48;;;6.22;;
36797;SDS011;22748;8.426;99.512;2023-05-07T04:37:25;8.35;;;6.25;;
36797;SDS011;22748;8.426;99.512;2023-05-07T04:39:59;7.05;;;6.35;;
36797;SDS011;22748;8.426;99.512;2023-05-07T04:42:37;7.55;;;6.57;;
36797;SDS011;22748;8.426;99.512;2023-05-07T04:45:19;7.90;;;6.05;;
36797;SDS011;22748;8.426;99.512;2023-05-07T04:47:50;6.57;;;5.95;;
36797;SDS011;22748;8.426;99.512;2023-05-07T04:50:32;8.05;;;5.50;;
36797;SDS011;22748;8.426;99.512;2023-05-07T04:53:03;9.88;;;6.10;;
36797;SDS011;22748;8.426;99.512;2023-05-07T04:55:34;6.43;;;5.83;;
36797;SDS011;22748;8.426;99.512;2023-05-07T04:58:06;7.03;;;5.95;;
36797;SDS011;22748;8.426;99.512;2023-05-07T05:00:36;7.35;;;6.65;;
36797;SDS011;22748;8.426;99.512;2023-05-07T05:03:13;7.47;;;5.93;;
36797;SDS011;22748;8.426;99.512;2023-05-07T05:05:44;6.40;;;5.80;;
36797;SDS011;22748;8.426;99.512;2023-05-07T05:08:18;7.78;;;6.13;;
36797;SDS011;22748;8.426;99.512;2023-05-07T05:10:48;6.80;;;6.13;;
36797;SDS011;22748;8.426;99.512;2023-05-07T05:13:28;8.85;;;6.93;;
36797;SDS011;22748;8.426;99.512;2023-05-07T05:16:01;7.18;;;6.57;;
36797;SDS011;22748;8.426;99.512;2023-05-07T05:18:33;7.57;;;6.57;;
36797;SDS011;22748;8.426;99.512;2023-05-07T05:21:05;6.65;;;6.10;;
36797;SDS011;22748;8.426;99.512;2023-05-07T05:26:04;6.97;;;6.38;;
36797;SDS011;22748;8.426;99.512;2023-05-07T05:28:36;7.77;;;7.03;;
36797;SDS011;22748;8.426;99.512;2023-05-07T05:31:09;8.02;;;7.05;;
36797;SDS011;22748;8.426;99.512;2023-05-07T05:36:10;9.95;;;7.93;;
36797;SDS011;22748;8.426;99.512;2023-05-07T05:38:40;7.72;;;7.03;;
36797;SDS011;22748;8.426;99.512;2023-05-07T05:41:12;8.52;;;7.05;;
36797;SDS011;22748;8.426;99.512;2023-05-07T05:43:44;8.23;;;7.43;;
36797;SDS011;22748;8.426;99.512;2023-05-07T05:46:21;8.23;;;6.75;;
36797;SDS011;22748;8.426;99.512;2023-05-07T05:48:55;8.50;;;6.85;;
36797;SDS011;22748;8.426;99.512;2023-05-07T05:51:25;9.02;;;7.70;;
36797;SDS011;22748;8.426;99.512;2023-05-07T05:53:56;10.27;;;6.23;;
36797;SDS011;22748;8.426;99.512;2023-05-07T05:56:26;7.35;;;6.65;;
36797;SDS011;22748;8.426;99.512;2023-05-07T05:59:04;7.20;;;6.50;;
36797;SDS011;22748;8.426;99.512;2023-05-07T06:01:44;7.93;;;7.10;;
36797;SDS011;22748;8.426;99.512;2023-05-07T06:06:43;9.23;;;7.18;;
36797;SDS011;22748;8.426;99.512;2023-05-07T06:09:16;8.25;;;7.10;;
36797;SDS011;22748;8.426;99.512;2023-05-07T06:11:47;8.45;;;7.65;;
36797;SDS011;22748;8.426;99.512;2023-05-07T06:14:26;8.52;;;7.00;;
36797;SDS011;22748;8.426;99.512;2023-05-07T06:17:00;7.72;;;6.95;;
36797;SDS011;22748;8.426;99.512;2023-05-07T06:19:32;7.53;;;6.68;;
36797;SDS011;22748;8.426;99.512;2023-05-07T06:22:02;7.80;;;7.20;;
36797;SDS011;22748;8.426;99.512;2023-05-07T06:24:33;7.32;;;6.68;;
36797;SDS011;22748;8.426;99.512;2023-05-07T06:27:04;6.90;;;6.28;;
36797;SDS011;22748;8.426;99.512;2023-05-07T06:29:40;8.98;;;6.47;;
36797;SDS011;22748;8.426;99.512;2023-05-07T06:32:12;8.15;;;6.25;;
36797;SDS011;22748;8.426;99.512;2023-05-07T06:34:43;8.52;;;6.75;;
36797;SDS011;22748;8.426;99.512;2023-05-07T06:37:14;8.63;;;6.78;;
36797;SDS011;22748;8.426;99.512;2023-05-07T06:39:45;6.97;;;6.38;;
36797;SDS011;22748;8.426;99.512;2023-05-07T06:42:21;6.72;;;6.03;;
36797;SDS011;22748;8.426;99.512;2023-05-07T06:44:55;7.75;;;6.97;;
36797;SDS011;22748;8.426;99.512;2023-05-07T06:47:26;14.18;;;11.80;;
36797;SDS011;22748;8.426;99.512;2023-05-07T06:49:58;7.35;;;6.65;;
36797;SDS011;22748;8.426;99.512;2023-05-07T06:52:29;9.45;;;8.13;;
36797;SDS011;22748;8.426;99.512;2023-05-07T06:54:59;8.07;;;6.90;;
36797;SDS011;22748;8.426;99.512;2023-05-07T06:57:30;7.88;;;7.18;;
36797;SDS011;22748;8.426;99.512;2023-05-07T07:00:13;8.32;;;6.32;;
36797;SDS011;22748;8.426;99.512;2023-05-07T07:02:44;6.85;;;6.13;;
36797;SDS011;22748;8.426;99.512;2023-05-07T07:05:14;7.82;;;5.97;;
36797;SDS011;22748;8.426;99.512;2023-05-07T07:07:44;7.07;;;6.30;;
36797;SDS011;22748;8.426;99.512;2023-05-07T07:10:19;6.72;;;6.03;;
36797;SDS011;22748;8.426;99.512;2023-05-07T07:12:50;6.40;;;5.80;;
36797;SDS011;22748;8.426;99.512;2023-05-07T07:15:22;8.75;;;5.95;;
36797;SDS011;22748;8.426;99.512;2023-05-07T07:17:52;6.43;;;5.82;;
36797;SDS011;22748;8.426;99.512;2023-05-07T07:20:24;9.43;;;6.03;;
36797;SDS011;22748;8.426;99.512;2023-05-07T07:22:54;6.00;;;5.40;;
36797;SDS011;22748;8.426;99.512;2023-05-07T07:25:28;5.97;;;5.22;;
36797;SDS011;22748;8.426;99.512;2023-05-07T07:28:10;6.47;;;4.80;;
36797;SDS011;22748;8.426;99.512;2023-05-07T07:30:48;8.35;;;6.18;;
36797;SDS011;22748;8.426;99.512;2023-05-07T07:33:23;5.15;;;4.68;;
36797;SDS011;22748;8.426;99.512;2023-05-07T07:35:53;6.93;;;5.05;;
36797;SDS011;22748;8.426;99.512;2023-05-07T07:38:25;5.28;;;4.47;;
36797;SDS011;22748;8.426;99.512;2023-05-07T07:40:56;5.57;;;4.70;;
36797;SDS011;22748;8.426;99.512;2023-05-07T07:43:27;5.00;;;4.50;;
36797;SDS011;22748;8.426;99.512;2023-05-07T07:46:00;5.68;;;5.18;;
36797;SDS011;22748;8.426;99.512;2023-05-07T07:48:31;9.20;;;7.72;;
36797;SDS011;22748;8.426;99.512;2023-05-07T07:51:05;6.15;;;5.30;;
36797;SDS011;22748;8.426;99.512;2023-05-07T07:53:37;6.43;;;4.90;;
36797;SDS011;22748;8.426;99.512;2023-05-07T07:56:08;5.20;;;4.70;;
36797;SDS011;22748;8.426;99.512;2023-05-07T08:01:09;5.32;;;4.82;;
36797;SDS011;22748;8.426;99.512;2023-05-07T08:03:39;8.95;;;5.13;;
36797;SDS011;22748;8.426;99.512;2023-05-07T08:06:09;9.63;;;4.70;;
36797;SDS011;22748;8.426;99.512;2023-05-07T08:08:40;7.15;;;4.38;;
36797;SDS011;22748;8.426;99.512;2023-05-07T08:11:14;10.10;;;4.40;;
36797;SDS011;22748;8.426;99.512;2023-05-07T08:13:45;7.10;;;4.63;;
36797;SDS011;22748;8.426;99.512;2023-05-07T08:16:18;7.30;;;4.93;;
36797;SDS011;22748;8.426;99.512;2023-05-07T08:18:49;7.97;;;4.65;;
36797;SDS011;22748;8.426;99.512;2023-05-07T08:21:21;7.75;;;5.15;;
36797;SDS011;22748;8.426;99.512;2023-05-07T08:23:52;5.65;;;5.13;;
36797;SDS011;22748;8.426;99.512;2023-05-07T08:26:23;5.38;;;4.75;;
36797;SDS011;22748;8.426;99.512;2023-05-07T08:28:54;5.85;;;5.28;;
36797;SDS011;22748;8.426;99.512;2023-05-07T08:36:25;8.90;;;5.60;;
36797;SDS011;22748;8.426;99.512;2023-05-07T08:38:56;6.85;;;5.15;;
36797;SDS011;22748;8.426;99.512;2023-05-07T08:41:29;6.82;;;5.60;;
36797;SDS011;22748;8.426;99.512;2023-05-07T08:44:01;11.90;;;6.38;;
36797;SDS011;22748;8.426;99.512;2023-05-07T08:46:36;7.25;;;5.97;;
36797;SDS011;22748;8.426;99.512;2023-05-07T08:49:13;10.20;;;5.55;;
36797;SDS011;22748;8.426;99.512;2023-05-07T08:51:43;7.55;;;5.55;;
36797;SDS011;22748;8.426;99.512;2023-05-07T08:54:15;5.93;;;5.35;;
36797;SDS011;22748;8.426;99.512;2023-05-07T08:56:48;11.75;;;5.72;;
36797;SDS011;22748;8.426;99.512;2023-05-07T08:59:19;5.72;;;5.22;;
36797;SDS011;22748;8.426;99.512;2023-05-07T09:01:52;9.10;;;5.57;;
36797;SDS011;22748;8.426;99.512;2023-05-07T09:04:23;10.00;;;4.90;;
36797;SDS011;22748;8.426;99.512;2023-05-07T09:06:55;6.32;;;5.55;;
36797;SDS011;22748;8.426;99.512;2023-05-07T09:09:32;6.55;;;5.50;;
36797;SDS011;22748;8.426;99.512;2023-05-07T09:12:03;6.53;;;5.43;;
36797;SDS011;22748;8.426;99.512;2023-05-07T09:14:35;7.13;;;5.05;;
36797;SDS011;22748;8.426;99.512;2023-05-07T09:17:08;8.98;;;4.65;;
36797;SDS011;22748;8.426;99.512;2023-05-07T09:19:39;8.98;;;5.35;;
36797;SDS011;22748;8.426;99.512;2023-05-07T09:22:09;21.60;;;19.58;;
36797;SDS011;22748;8.426;99.512;2023-05-07T09:24:47;13.82;;;9.40;;
36797;SDS011;22748;8.426;99.512;2023-05-07T09:27:18;15.73;;;9.77;;
36797;SDS011;22748;8.426;99.512;2023-05-07T09:29:48;9.30;;;7.77;;
36797;SDS011;22748;8.426;99.512;2023-05-07T09:32:22;10.73;;;6.93;;
36797;SDS011;22748;8.426;99.512;2023-05-07T09:34:59;6.43;;;5.57;;
36797;SDS011;22748;8.426;99.512;2023-05-07T09:37:31;8.23;;;5.53;;
36797;SDS011;22748;8.426;99.512;2023-05-07T09:40:03;8.88;;;6.32;;
36797;SDS011;22748;8.426;99.512;2023-05-07T09:42:35;6.35;;;5.60;;
36797;SDS011;22748;8.426;99.512;2023-05-07T09:45:07;5.15;;;4.57;;
36797;SDS011;22748;8.426;99.512;2023-05-07T09:47:39;5.78;;;4.80;;
36797;SDS011;22748;8.426;99.512;2023-05-07T09:50:14;13.18;;;5.63;;
36797;SDS011;22748;8.426;99.512;2023-05-07T09:52:45;6.80;;;5.22;;
36797;SDS011;22748;8.426;99.512;2023-05-07T09:57:50;7.65;;;4.43;;
36797;SDS011;22748;8.426;99.512;2023-05-07T10:00:22;6.70;;;4.28;;
36797;SDS011;22748;8.426;99.512;2023-05-07T10:02:56;8.57;;;4.28;;
36797;SDS011;22748;8.426;99.512;2023-05-07T10:05:29;6.00;;;3.80;;
36797;SDS011;22748;8.426;99.512;2023-05-07T10:07:59;7.10;;;4.40;;
36797;SDS011;22748;8.426;99.512;2023-05-07T10:10:33;7.88;;;3.70;;
36797;SDS011;22748;8.426;99.512;2023-05-07T10:13:03;7.20;;;3.20;;
36797;SDS011;22748;8.426;99.512;2023-05-07T10:15:37;8.07;;;3.20;;
36797;SDS011;22748;8.426;99.512;2023-05-07T10:18:10;7.30;;;3.83;;
36797;SDS011;22748;8.426;99.512;2023-05-07T10:20:42;4.53;;;3.30;;
36797;SDS011;22748;8.426;99.512;2023-05-07T10:23:18;7.22;;;3.30;;
36797;SDS011;22748;8.426;99.512;2023-05-07T10:25:57;6.32;;;3.83;;
36797;SDS011;22748;8.426;99.512;2023-05-07T10:28:39;7.15;;;3.90;;
36797;SDS011;22748;8.426;99.512;2023-05-07T10:31:18;11.88;;;7.97;;
36797;SDS011;22748;8.426;99.512;2023-05-07T10:34:15;6.93;;;4.15;;
36797;SDS011;22748;8.426;99.512;2023-05-07T10:36:50;14.65;;;9.73;;
36797;SDS011;22748;8.426;99.512;2023-05-07T10:39:23;7.13;;;3.83;;
36797;SDS011;22748;8.426;99.512;2023-05-07T10:41:53;5.45;;;3.60;;
36797;SDS011;22748;8.426;99.512;2023-05-07T10:44:28;5.60;;;3.58;;
36797;SDS011;22748;8.426;99.512;2023-05-07T10:47:13;4.80;;;3.13;;
36797;SDS011;22748;8.426;99.512;2023-05-07T10:52:48;7.07;;;3.90;;
36797;SDS011;22748;8.426;99.512;2023-05-07T11:02:00;9.13;;;4.05;;
36797;SDS011;22748;8.426;99.512;2023-05-07T11:04:35;6.35;;;4.60;;
36797;SDS011;22748;8.426;99.512;2023-05-07T11:10:01;6.95;;;3.80;;
36797;SDS011;22748;8.426;99.512;2023-05-07T11:15:43;10.75;;;5.15;;
36797;SDS011;22748;8.426;99.512;2023-05-07T11:18:14;7.03;;;3.60;;
36797;SDS011;22748;8.426;99.512;2023-05-07T11:20:51;6.07;;;3.17;;
36797;SDS011;22748;8.426;99.512;2023-05-07T11:26:43;7.75;;;4.05;;
36797;SDS011;22748;8.426;99.512;2023-05-07T11:29:15;8.50;;;3.83;;
36797;SDS011;22748;8.426;99.512;2023-05-07T11:31:49;6.93;;;3.80;;
36797;SDS011;22748;8.426;99.512;2023-05-07T11:34:22;7.13;;;3.05;;
36797;SDS011;22748;8.426;99.512;2023-05-07T11:36:53;6.20;;;3.33;;
36797;SDS011;22748;8.426;99.512;2023-05-07T11:39:25;6.07;;;4.22;;
36797;SDS011;22748;8.426;99.512;2023-05-07T11:41:59;9.35;;;4.20;;
36797;SDS011;22748;8.426;99.512;2023-05-07T11:44:51;7.15;;;3.53;;
36797;SDS011;22748;8.426;99.512;2023-05-07T11:47:23;11.07;;;4.28;;
36797;SDS011;22748;8.426;99.512;2023-05-07T11:49:53;6.90;;;3.47;;
36797;SDS011;22748;8.426;99.512;2023-05-07T11:52:24;7.43;;;3.55;;
36797;SDS011;22748;8.426;99.512;2023-05-07T11:54:55;6.63;;;2.97;;
36797;SDS011;22748;8.426;99.512;2023-05-07T11:57:29;12.50;;;3.60;;
36797;SDS011;22748;8.426;99.512;2023-05-07T12:00:01;6.53;;;3.10;;
36797;SDS011;22748;8.426;99.512;2023-05-07T12:05:01;6.43;;;3.08;;
36797;SDS011;22748;8.426;99.512;2023-05-07T12:07:32;5.85;;;3.10;;
36797;SDS011;22748;8.426;99.512;2023-05-07T12:10:06;7.32;;;3.17;;
36797;SDS011;22748;8.426;99.512;2023-05-07T12:12:41;8.55;;;4.03;;
36797;SDS011;22748;8.426;99.512;2023-05-07T12:15:16;9.93;;;3.55;;
36797;SDS011;22748;8.426;99.512;2023-05-07T12:17:47;7.88;;;3.70;;
36797;SDS011;22748;8.426;99.512;2023-05-07T12:20:18;9.40;;;5.28;;
36797;SDS011;22748;8.426;99.512;2023-05-07T12:22:49;7.82;;;4.68;;
36797;SDS011;22748;8.426;99.512;2023-05-07T12:25:20;8.98;;;6.00;;
36797;SDS011;22748;8.426;99.512;2023-05-07T12:27:53;17.98;;;7.38;;
36797;SDS011;22748;8.426;99.512;2023-05-07T12:30:26;16.88;;;6.72;;
36797;SDS011;22748;8.426;99.512;2023-05-07T12:32:56;10.30;;;6.55;;
36797;SDS011;22748;8.426;99.512;2023-05-07T12:35:27;9.93;;;6.33;;
36797;SDS011;22748;8.426;99.512;2023-05-07T12:37:59;10.10;;;5.75;;
36797;SDS011;22748;8.426;99.512;2023-05-07T12:40:40;8.18;;;5.68;;
36797;SDS011;22748;8.426;99.512;2023-05-07T12:43:26;15.57;;;5.97;;
36797;SDS011;22748;8.426;99.512;2023-05-07T12:45:59;13.73;;;5.43;;
36797;SDS011;22748;8.426;99.512;2023-05-07T12:48:30;9.23;;;5.40;;
36797;SDS011;22748;8.426;99.512;2023-05-07T12:51:06;7.03;;;4.18;;
36797;SDS011;22748;8.426;99.512;2023-05-07T12:53:40;9.75;;;4.35;;
36797;SDS011;22748;8.426;99.512;2023-05-07T12:56:26;5.70;;;4.18;;
36797;SDS011;22748;8.426;99.512;2023-05-07T12:59:01;6.72;;;4.75;;
36797;SDS011;22748;8.426;99.512;2023-05-07T13:01:33;6.78;;;4.68;;
36797;SDS011;22748;8.426;99.512;2023-05-07T13:04:04;13.38;;;6.22;;
36797;SDS011;22748;8.426;99.512;2023-05-07T13:06:35;8.10;;;5.40;;
36797;SDS011;22748;8.426;99.512;2023-05-07T13:11:36;12.10;;;7.22;;
36797;SDS011;22748;8.426;99.512;2023-05-07T13:14:10;11.93;;;6.72;;
36797;SDS011;22748;8.426;99.512;2023-05-07T13:16:40;11.52;;;6.13;;
36797;SDS011;22748;8.426;99.512;2023-05-07T13:19:19;6.55;;;4.05;;
36797;SDS011;22748;8.426;99.512;2023-05-07T13:21:50;8.45;;;3.58;;
36797;SDS011;22748;8.426;99.512;2023-05-07T13:24:20;6.18;;;3.78;;
36797;SDS011;22748;8.426;99.512;2023-05-07T13:26:50;6.53;;;3.92;;
36797;SDS011;22748;8.426;99.512;2023-05-07T13:29:22;8.77;;;3.85;;
36797;SDS011;22748;8.426;99.512;2023-05-07T13:31:56;7.72;;;3.72;;
36797;SDS011;22748;8.426;99.512;2023-05-07T13:34:33;6.53;;;3.92;;
36797;SDS011;22748;8.426;99.512;2023-05-07T13:39:35;5.53;;;3.75;;
36797;SDS011;22748;8.426;99.512;2023-05-07T13:42:05;7.43;;;3.35;;
36797;SDS011;22748;8.426;99.512;2023-05-07T13:44:39;6.53;;;2.92;;
36797;SDS011;22748;8.426;99.512;2023-05-07T13:47:14;6.78;;;3.28;;
36797;SDS011;22748;8.426;99.512;2023-05-07T13:49:44;4.70;;;2.75;;
36797;SDS011;22748;8.426;99.512;2023-05-07T13:52:20;6.53;;;3.08;;
36797;SDS011;22748;8.426;99.512;2023-05-07T13:54:51;12.30;;;6.00;;
36797;SDS011;22748;8.426;99.512;2023-05-07T13:57:25;12.55;;;6.05;;
36797;SDS011;22748;8.426;99.512;2023-05-07T14:00:00;8.32;;;6.00;;
36797;SDS011;22748;8.426;99.512;2023-05-07T14:02:31;10.23;;;5.57;;
36797;SDS011;22748;8.426;99.512;2023-05-07T14:05:02;7.22;;;4.93;;
36797;SDS011;22748;8.426;99.512;2023-05-07T14:07:33;11.20;;;6.82;;
36797;SDS011;22748;8.426;99.512;2023-05-07T14:10:04;24.50;;;13.97;;
36797;SDS011;22748;8.426;99.512;2023-05-07T14:12:35;32.55;;;20.05;;
36797;SDS011;22748;8.426;99.512;2023-05-07T14:15:14;29.75;;;15.98;;
36797;SDS011;22748;8.426;99.512;2023-05-07T14:17:44;21.55;;;12.80;;
36797;SDS011;22748;8.426;99.512;2023-05-07T14:20:16;19.00;;;11.00;;
36797;SDS011;22748;8.426;99.512;2023-05-07T14:22:47;20.52;;;10.73;;
36797;SDS011;22748;8.426;99.512;2023-05-07T14:25:20;23.58;;;12.05;;
36797;SDS011;22748;8.426;99.512;2023-05-07T14:27:51;15.70;;;8.32;;
36797;SDS011;22748;8.426;99.512;2023-05-07T14:30:30;9.35;;;6.20;;
36797;SDS011;22748;8.426;99.512;2023-05-07T14:33:03;8.68;;;5.10;;
36797;SDS011;22748;8.426;99.512;2023-05-07T14:35:35;8.73;;;4.60;;
36797;SDS011;22748;8.426;99.512;2023-05-07T14:38:12;7.97;;;4.40;;
36797;SDS011;22748;8.426;99.512;2023-05-07T14:40:42;8.98;;;4.32;;
36797;SDS011;22748;8.426;99.512;2023-05-07T14:43:13;5.63;;;2.47;;
36797;SDS011;22748;8.426;99.512;2023-05-07T14:45:45;3.20;;;1.92;;
36797;SDS011;22748;8.426;99.512;2023-05-07T14:48:16;3.53;;;2.00;;
36797;SDS011;22748;8.426;99.512;2023-05-07T14:50:53;2.00;;;1.60;;
36797;SDS011;22748;8.426;99.512;2023-05-07T14:53:24;2.58;;;1.30;;
36797;SDS011;22748;8.426;99.512;2023-05-07T14:55:54;1.73;;;1.23;;
36797;SDS011;22748;8.426;99.512;2023-05-07T14:58:24;1.92;;;1.05;;
36797;SDS011;22748;8.426;99.512;2023-05-07T15:00:58;2.80;;;1.70;;
36797;SDS011;22748;8.426;99.512;2023-05-07T15:03:29;2.38;;;1.35;;
36797;SDS011;22748;8.426;99.512;2023-05-07T15:05:59;2.13;;;1.60;;
36797;SDS011;22748;8.426;99.512;2023-05-07T15:08:33;2.55;;;1.60;;
36797;SDS011;22748;8.426;99.512;2023-05-07T15:11:04;2.20;;;1.38;;
36797;SDS011;22748;8.426;99.512;2023-05-07T15:16:06;2.20;;;1.30;;
36797;SDS011;22748;8.426;99.512;2023-05-07T15:18:40;2.60;;;1.48;;
36797;SDS011;22748;8.426;99.512;2023-05-07T15:21:12;2.58;;;1.40;;
36797;SDS011;22748;8.426;99.512;2023-05-07T15:23:45;3.92;;;1.38;;
36797;SDS011;22748;8.426;99.512;2023-05-07T15:26:17;1.88;;;1.40;;
36797;SDS011;22748;8.426;99.512;2023-05-07T15:28:48;1.52;;;1.20;;
36797;SDS011;22748;8.426;99.512;2023-05-07T15:33:50;1.40;;;1.30;;
36797;SDS011;22748;8.426;99.512;2023-05-07T15:41:21;1.40;;;1.15;;
36797;SDS011;22748;8.426;99.512;2023-05-07T15:43:52;3.17;;;1.50;;
36797;SDS011;22748;8.426;99.512;2023-05-07T15:46:25;2.47;;;1.20;;
36797;SDS011;22748;8.426;99.512;2023-05-07T15:48:55;1.92;;;1.10;;
36797;SDS011;22748;8.426;99.512;2023-05-07T15:51:28;1.23;;;1.10;;
36797;SDS011;22748;8.426;99.512;2023-05-07T15:53:58;2.65;;;1.40;;
36797;SDS011;22748;8.426;99.512;2023-05-07T15:56:30;2.83;;;1.67;;
36797;SDS011;22748;8.426;99.512;2023-05-07T15:59:01;2.38;;;2.05;;
36797;SDS011;22748;8.426;99.512;2023-05-07T16:01:34;3.75;;;2.63;;
36797;SDS011;22748;8.426;99.512;2023-05-07T16:04:07;3.40;;;2.67;;
36797;SDS011;22748;8.426;99.512;2023-05-07T16:06:38;4.07;;;2.70;;
36797;SDS011;22748;8.426;99.512;2023-05-07T16:09:11;5.20;;;2.65;;
36797;SDS011;22748;8.426;99.512;2023-05-07T16:11:42;3.78;;;2.30;;
36797;SDS011;22748;8.426;99.512;2023-05-07T16:14:13;4.47;;;2.55;;
36797;SDS011;22748;8.426;99.512;2023-05-07T16:16:46;2.70;;;2.40;;
36797;SDS011;22748;8.426;99.512;2023-05-07T16:19:17;3.63;;;2.30;;
36797;SDS011;22748;8.426;99.512;2023-05-07T16:21:49;3.50;;;2.25;;
36797;SDS011;22748;8.426;99.512;2023-05-07T16:24:20;3.85;;;2.67;;